sensor_id;sensor_type;location;lat;lon;timestamp;P1;durP1;ratioP1;P2;durP2;ratioP2
54125;SDS011;40360;52.992;6.796;2023-07-22T00:01:18;15.13;;;9.07;;
54125;SDS011;40360;52.992;6.796;2023-07-22T00:03:44;15.95;;;8.90;;
54125;SDS011;40360;52.992;6.796;2023-07-22T00:06:09;15.07;;;9.45;;
54125;SDS011;40360;52.992;6.796;2023-07-22T00:08:35;17.13;;;9.30;;
54125;SDS011;40360;52.992;6.796;2023-07-22T00:11:05;12.55;;;8.95;;
54125;SDS011;40360;52.992;6.796;2023-07-22T00:13:31;18.20;;;9.02;;
54125;SDS011;40360;52.992;6.796;2023-07-22T00:15:57;16.52;;;9.93;;
54125;SDS011;40360;52.992;6.796;2023-07-22T00:18:29;15.13;;;8.80;;
54125;SDS011;40360;52.992;6.796;2023-07-22T00:20:56;16.00;;;9.05;;
54125;SDS011;40360;52.992;6.796;2023-07-22T00:23:22;17.92;;;9.55;;
54125;SDS011;40360;52.992;6.796;2023-07-22T00:25:47;16.63;;;9.35;;
54125;SDS011;40360;52.992;6.796;2023-07-22T00:28:13;16.20;;;9.45;;
54125;SDS011;40360;52.992;6.796;2023-07-22T00:30:39;18.75;;;9.50;;
54125;SDS011;40360;52.992;6.796;2023-07-22T00:33:05;15.75;;;10.07;;
54125;SDS011;40360;52.992;6.796;2023-07-22T00:35:31;19.20;;;9.35;;
54125;SDS011;40360;52.992;6.796;2023-07-22T00:37:57;19.70;;;10.95;;
54125;SDS011;40360;52.992;6.796;2023-07-22T00:40:23;15.05;;;9.00;;
54125;SDS011;40360;52.992;6.796;2023-07-22T00:42:49;17.45;;;9.13;;
54125;SDS011;40360;52.992;6.796;2023-07-22T00:45:14;13.90;;;9.43;;
54125;SDS011;40360;52.992;6.796;2023-07-22T00:47:40;15.82;;;9.02;;
54125;SDS011;40360;52.992;6.796;2023-07-22T00:50:06;18.15;;;8.77;;
54125;SDS011;40360;52.992;6.796;2023-07-22T00:52:36;18.63;;;9.05;;
54125;SDS011;40360;52.992;6.796;2023-07-22T00:55:03;15.70;;;9.43;;
54125;SDS011;40360;52.992;6.796;2023-07-22T00:57:30;15.10;;;8.98;;
54125;SDS011;40360;52.992;6.796;2023-07-22T00:59:55;16.27;;;9.52;;
54125;SDS011;40360;52.992;6.796;2023-07-22T01:02:21;16.02;;;9.05;;
54125;SDS011;40360;52.992;6.796;2023-07-22T01:04:48;17.33;;;8.98;;
54125;SDS011;40360;52.992;6.796;2023-07-22T01:07:15;18.23;;;8.98;;
54125;SDS011;40360;52.992;6.796;2023-07-22T01:09:41;15.77;;;9.60;;
54125;SDS011;40360;52.992;6.796;2023-07-22T01:12:08;15.63;;;9.80;;
54125;SDS011;40360;52.992;6.796;2023-07-22T01:14:38;17.30;;;10.27;;
54125;SDS011;40360;52.992;6.796;2023-07-22T01:17:06;17.60;;;10.05;;
54125;SDS011;40360;52.992;6.796;2023-07-22T01:19:33;14.27;;;8.95;;
54125;SDS011;40360;52.992;6.796;2023-07-22T01:22:00;20.27;;;10.45;;
54125;SDS011;40360;52.992;6.796;2023-07-22T01:24:28;14.38;;;9.15;;
54125;SDS011;40360;52.992;6.796;2023-07-22T01:26:54;18.40;;;10.57;;
54125;SDS011;40360;52.992;6.796;2023-07-22T01:29:21;15.27;;;9.45;;
54125;SDS011;40360;52.992;6.796;2023-07-22T01:31:49;16.20;;;9.82;;
54125;SDS011;40360;52.992;6.796;2023-07-22T01:34:19;16.23;;;9.50;;
54125;SDS011;40360;52.992;6.796;2023-07-22T01:36:45;16.40;;;8.88;;
54125;SDS011;40360;52.992;6.796;2023-07-22T01:39:12;19.25;;;10.98;;
54125;SDS011;40360;52.992;6.796;2023-07-22T01:41:39;16.92;;;9.27;;
54125;SDS011;40360;52.992;6.796;2023-07-22T01:44:05;19.35;;;11.18;;
54125;SDS011;40360;52.992;6.796;2023-07-22T01:46:30;19.58;;;9.13;;
54125;SDS011;40360;52.992;6.796;2023-07-22T01:48:56;16.25;;;9.65;;
54125;SDS011;40360;52.992;6.796;2023-07-22T01:51:22;14.70;;;8.40;;
54125;SDS011;40360;52.992;6.796;2023-07-22T01:53:47;13.88;;;8.63;;
54125;SDS011;40360;52.992;6.796;2023-07-22T01:56:14;14.77;;;9.82;;
54125;SDS011;40360;52.992;6.796;2023-07-22T01:58:41;17.88;;;8.52;;
54125;SDS011;40360;52.992;6.796;2023-07-22T02:01:07;16.73;;;8.55;;
54125;SDS011;40360;52.992;6.796;2023-07-22T02:03:33;17.92;;;9.70;;
54125;SDS011;40360;52.992;6.796;2023-07-22T02:06:02;17.70;;;10.18;;
54125;SDS011;40360;52.992;6.796;2023-07-22T02:08:30;29.98;;;10.35;;
54125;SDS011;40360;52.992;6.796;2023-07-22T02:11:03;14.73;;;8.85;;
54125;SDS011;40360;52.992;6.796;2023-07-22T02:13:32;19.55;;;8.25;;
54125;SDS011;40360;52.992;6.796;2023-07-22T02:15:59;17.33;;;9.48;;
54125;SDS011;40360;52.992;6.796;2023-07-22T02:18:25;17.50;;;8.32;;
54125;SDS011;40360;52.992;6.796;2023-07-22T02:20:52;17.38;;;9.43;;
54125;SDS011;40360;52.992;6.796;2023-07-22T02:23:18;17.33;;;8.88;;
54125;SDS011;40360;52.992;6.796;2023-07-22T02:25:44;14.40;;;8.88;;
54125;SDS011;40360;52.992;6.796;2023-07-22T02:28:13;15.60;;;9.05;;
54125;SDS011;40360;52.992;6.796;2023-07-22T02:30:40;14.57;;;8.80;;
54125;SDS011;40360;52.992;6.796;2023-07-22T02:33:06;16.85;;;8.40;;
54125;SDS011;40360;52.992;6.796;2023-07-22T02:35:32;17.25;;;8.88;;
54125;SDS011;40360;52.992;6.796;2023-07-22T02:37:58;14.38;;;9.32;;
54125;SDS011;40360;52.992;6.796;2023-07-22T02:40:24;17.90;;;8.63;;
54125;SDS011;40360;52.992;6.796;2023-07-22T02:42:49;18.92;;;8.05;;
54125;SDS011;40360;52.992;6.796;2023-07-22T02:45:15;18.02;;;9.05;;
54125;SDS011;40360;52.992;6.796;2023-07-22T02:47:40;16.83;;;8.38;;
54125;SDS011;40360;52.992;6.796;2023-07-22T02:50:06;16.38;;;8.80;;
54125;SDS011;40360;52.992;6.796;2023-07-22T02:52:32;16.75;;;8.43;;
54125;SDS011;40360;52.992;6.796;2023-07-22T02:55:11;14.82;;;8.75;;
54125;SDS011;40360;52.992;6.796;2023-07-22T02:57:39;22.48;;;10.43;;
54125;SDS011;40360;52.992;6.796;2023-07-22T03:00:06;16.65;;;9.10;;
54125;SDS011;40360;52.992;6.796;2023-07-22T03:02:33;15.45;;;9.07;;
54125;SDS011;40360;52.992;6.796;2023-07-22T03:05:00;15.30;;;8.98;;
54125;SDS011;40360;52.992;6.796;2023-07-22T03:07:26;19.70;;;9.25;;
54125;SDS011;40360;52.992;6.796;2023-07-22T03:09:52;15.80;;;7.88;;
54125;SDS011;40360;52.992;6.796;2023-07-22T03:12:18;17.90;;;8.18;;
54125;SDS011;40360;52.992;6.796;2023-07-22T03:14:43;14.38;;;8.75;;
54125;SDS011;40360;52.992;6.796;2023-07-22T03:17:10;13.70;;;7.65;;
54125;SDS011;40360;52.992;6.796;2023-07-22T03:19:37;13.38;;;7.57;;
54125;SDS011;40360;52.992;6.796;2023-07-22T03:22:03;15.73;;;7.93;;
54125;SDS011;40360;52.992;6.796;2023-07-22T03:24:28;14.63;;;8.85;;
54125;SDS011;40360;52.992;6.796;2023-07-22T03:26:54;14.75;;;9.02;;
54125;SDS011;40360;52.992;6.796;2023-07-22T03:29:20;18.80;;;10.82;;
54125;SDS011;40360;52.992;6.796;2023-07-22T03:31:45;20.35;;;9.77;;
54125;SDS011;40360;52.992;6.796;2023-07-22T03:34:11;16.92;;;10.10;;
54125;SDS011;40360;52.992;6.796;2023-07-22T03:36:36;15.60;;;9.77;;
54125;SDS011;40360;52.992;6.796;2023-07-22T03:39:02;13.90;;;8.75;;
54125;SDS011;40360;52.992;6.796;2023-07-22T03:41:28;16.65;;;10.15;;
54125;SDS011;40360;52.992;6.796;2023-07-22T03:43:53;18.13;;;9.68;;
54125;SDS011;40360;52.992;6.796;2023-07-22T03:46:19;13.32;;;8.25;;
54125;SDS011;40360;52.992;6.796;2023-07-22T03:48:44;21.52;;;11.20;;
54125;SDS011;40360;52.992;6.796;2023-07-22T03:51:10;15.27;;;10.27;;
54125;SDS011;40360;52.992;6.796;2023-07-22T03:53:36;16.40;;;9.70;;
54125;SDS011;40360;52.992;6.796;2023-07-22T03:56:01;18.13;;;10.07;;
54125;SDS011;40360;52.992;6.796;2023-07-22T03:58:27;16.67;;;9.25;;
54125;SDS011;40360;52.992;6.796;2023-07-22T04:00:53;18.70;;;10.75;;
54125;SDS011;40360;52.992;6.796;2023-07-22T04:03:18;16.45;;;9.95;;
54125;SDS011;40360;52.992;6.796;2023-07-22T04:05:44;18.02;;;10.25;;
54125;SDS011;40360;52.992;6.796;2023-07-22T04:08:09;17.20;;;10.32;;
54125;SDS011;40360;52.992;6.796;2023-07-22T04:10:35;20.00;;;11.63;;
54125;SDS011;40360;52.992;6.796;2023-07-22T04:13:03;19.20;;;10.55;;
54125;SDS011;40360;52.992;6.796;2023-07-22T04:15:29;20.30;;;11.63;;
54125;SDS011;40360;52.992;6.796;2023-07-22T04:17:55;19.50;;;12.05;;
54125;SDS011;40360;52.992;6.796;2023-07-22T04:20:21;25.70;;;12.25;;
54125;SDS011;40360;52.992;6.796;2023-07-22T04:22:49;21.30;;;11.55;;
54125;SDS011;40360;52.992;6.796;2023-07-22T04:25:14;21.00;;;12.10;;
54125;SDS011;40360;52.992;6.796;2023-07-22T04:27:40;21.98;;;11.35;;
54125;SDS011;40360;52.992;6.796;2023-07-22T04:30:06;16.65;;;10.13;;
54125;SDS011;40360;52.992;6.796;2023-07-22T04:32:32;20.55;;;11.82;;
54125;SDS011;40360;52.992;6.796;2023-07-22T04:34:58;15.63;;;11.00;;
54125;SDS011;40360;52.992;6.796;2023-07-22T04:37:24;16.25;;;10.35;;
54125;SDS011;40360;52.992;6.796;2023-07-22T04:39:49;14.50;;;9.93;;
54125;SDS011;40360;52.992;6.796;2023-07-22T04:42:15;17.80;;;10.88;;
54125;SDS011;40360;52.992;6.796;2023-07-22T04:44:41;17.08;;;10.55;;
54125;SDS011;40360;52.992;6.796;2023-07-22T04:47:09;14.82;;;10.10;;
54125;SDS011;40360;52.992;6.796;2023-07-22T04:49:35;20.13;;;11.75;;
54125;SDS011;40360;52.992;6.796;2023-07-22T04:52:01;18.92;;;10.73;;
54125;SDS011;40360;52.992;6.796;2023-07-22T04:54:27;18.35;;;11.93;;
54125;SDS011;40360;52.992;6.796;2023-07-22T04:56:53;18.52;;;10.38;;
54125;SDS011;40360;52.992;6.796;2023-07-22T04:59:18;17.35;;;11.32;;
54125;SDS011;40360;52.992;6.796;2023-07-22T05:01:44;21.55;;;13.07;;
54125;SDS011;40360;52.992;6.796;2023-07-22T05:04:10;26.27;;;14.13;;
54125;SDS011;40360;52.992;6.796;2023-07-22T05:06:35;21.20;;;12.88;;
54125;SDS011;40360;52.992;6.796;2023-07-22T05:09:01;24.05;;;13.70;;
54125;SDS011;40360;52.992;6.796;2023-07-22T05:11:28;23.95;;;12.82;;
54125;SDS011;40360;52.992;6.796;2023-07-22T05:13:53;19.88;;;13.60;;
54125;SDS011;40360;52.992;6.796;2023-07-22T05:16:19;19.35;;;11.43;;
54125;SDS011;40360;52.992;6.796;2023-07-22T05:18:46;18.98;;;11.52;;
54125;SDS011;40360;52.992;6.796;2023-07-22T05:21:11;20.73;;;12.45;;
54125;SDS011;40360;52.992;6.796;2023-07-22T05:23:37;21.27;;;11.63;;
54125;SDS011;40360;52.992;6.796;2023-07-22T05:26:03;19.60;;;12.57;;
54125;SDS011;40360;52.992;6.796;2023-07-22T05:28:28;18.50;;;11.77;;
54125;SDS011;40360;52.992;6.796;2023-07-22T05:30:55;17.50;;;11.30;;
54125;SDS011;40360;52.992;6.796;2023-07-22T05:33:21;16.40;;;10.63;;
54125;SDS011;40360;52.992;6.796;2023-07-22T05:35:46;18.70;;;12.70;;
54125;SDS011;40360;52.992;6.796;2023-07-22T05:38:12;18.85;;;12.52;;
54125;SDS011;40360;52.992;6.796;2023-07-22T05:40:37;19.13;;;12.43;;
54125;SDS011;40360;52.992;6.796;2023-07-22T05:43:03;19.30;;;12.07;;
54125;SDS011;40360;52.992;6.796;2023-07-22T06:01:53;19.50;;;13.05;;
54125;SDS011;40360;52.992;6.796;2023-07-22T06:04:19;20.88;;;13.30;;
54125;SDS011;40360;52.992;6.796;2023-07-22T06:06:45;18.58;;;12.05;;
54125;SDS011;40360;52.992;6.796;2023-07-22T06:09:10;20.40;;;12.70;;
54125;SDS011;40360;52.992;6.796;2023-07-22T06:11:36;19.27;;;13.02;;
54125;SDS011;40360;52.992;6.796;2023-07-22T06:14:01;22.00;;;13.88;;
54125;SDS011;40360;52.992;6.796;2023-07-22T06:16:27;19.58;;;12.88;;
54125;SDS011;40360;52.992;6.796;2023-07-22T06:18:52;17.48;;;11.40;;
54125;SDS011;40360;52.992;6.796;2023-07-22T06:21:18;20.73;;;13.13;;
54125;SDS011;40360;52.992;6.796;2023-07-22T06:23:44;16.48;;;11.57;;
54125;SDS011;40360;52.992;6.796;2023-07-22T06:26:09;16.60;;;11.18;;
54125;SDS011;40360;52.992;6.796;2023-07-22T06:28:35;20.33;;;13.07;;
54125;SDS011;40360;52.992;6.796;2023-07-22T06:31:00;18.38;;;12.82;;
54125;SDS011;40360;52.992;6.796;2023-07-22T06:33:26;22.10;;;13.57;;
54125;SDS011;40360;52.992;6.796;2023-07-22T06:35:51;17.83;;;12.18;;
54125;SDS011;40360;52.992;6.796;2023-07-22T06:38:17;19.40;;;13.43;;
54125;SDS011;40360;52.992;6.796;2023-07-22T06:40:43;20.83;;;11.68;;
54125;SDS011;40360;52.992;6.796;2023-07-22T06:43:08;20.77;;;12.95;;
54125;SDS011;40360;52.992;6.796;2023-07-22T06:45:34;20.20;;;12.88;;
54125;SDS011;40360;52.992;6.796;2023-07-22T06:47:59;18.30;;;11.98;;
54125;SDS011;40360;52.992;6.796;2023-07-22T06:50:25;16.15;;;11.93;;
54125;SDS011;40360;52.992;6.796;2023-07-22T06:52:50;17.30;;;12.50;;
54125;SDS011;40360;52.992;6.796;2023-07-22T06:55:16;21.70;;;13.77;;
54125;SDS011;40360;52.992;6.796;2023-07-22T06:57:42;18.08;;;11.90;;
54125;SDS011;40360;52.992;6.796;2023-07-22T07:00:08;16.00;;;12.35;;
54125;SDS011;40360;52.992;6.796;2023-07-22T07:02:37;19.10;;;12.25;;
54125;SDS011;40360;52.992;6.796;2023-07-22T07:05:03;16.85;;;12.30;;
54125;SDS011;40360;52.992;6.796;2023-07-22T07:07:29;17.27;;;13.10;;
54125;SDS011;40360;52.992;6.796;2023-07-22T07:09:54;15.27;;;11.10;;
54125;SDS011;40360;52.992;6.796;2023-07-22T07:12:20;20.10;;;11.57;;
54125;SDS011;40360;52.992;6.796;2023-07-22T07:14:49;16.05;;;11.30;;
54125;SDS011;40360;52.992;6.796;2023-07-22T07:17:15;15.80;;;11.88;;
54125;SDS011;40360;52.992;6.796;2023-07-22T07:19:40;20.67;;;11.85;;
54125;SDS011;40360;52.992;6.796;2023-07-22T07:22:06;17.00;;;12.25;;
54125;SDS011;40360;52.992;6.796;2023-07-22T07:24:32;15.95;;;11.90;;
54125;SDS011;40360;52.992;6.796;2023-07-22T07:26:57;16.75;;;11.55;;
54125;SDS011;40360;52.992;6.796;2023-07-22T07:29:23;16.83;;;11.80;;
54125;SDS011;40360;52.992;6.796;2023-07-22T07:31:49;17.27;;;11.48;;
54125;SDS011;40360;52.992;6.796;2023-07-22T07:34:14;16.05;;;11.52;;
54125;SDS011;40360;52.992;6.796;2023-07-22T07:36:40;15.82;;;12.20;;
54125;SDS011;40360;52.992;6.796;2023-07-22T07:39:05;15.15;;;11.90;;
54125;SDS011;40360;52.992;6.796;2023-07-22T07:41:31;19.98;;;12.88;;
54125;SDS011;40360;52.992;6.796;2023-07-22T07:43:56;21.67;;;13.52;;
54125;SDS011;40360;52.992;6.796;2023-07-22T07:46:23;15.55;;;11.90;;
54125;SDS011;40360;52.992;6.796;2023-07-22T07:48:51;20.08;;;12.32;;
54125;SDS011;40360;52.992;6.796;2023-07-22T07:51:21;17.20;;;11.85;;
54125;SDS011;40360;52.992;6.796;2023-07-22T07:53:49;14.88;;;11.27;;
54125;SDS011;40360;52.992;6.796;2023-07-22T07:56:15;18.15;;;11.10;;
54125;SDS011;40360;52.992;6.796;2023-07-22T07:58:42;16.05;;;11.27;;
54125;SDS011;40360;52.992;6.796;2023-07-22T08:01:08;16.02;;;11.55;;
54125;SDS011;40360;52.992;6.796;2023-07-22T08:03:34;17.65;;;11.88;;
54125;SDS011;40360;52.992;6.796;2023-07-22T08:06:01;15.05;;;10.88;;
54125;SDS011;40360;52.992;6.796;2023-07-22T08:08:28;14.77;;;10.68;;
54125;SDS011;40360;52.992;6.796;2023-07-22T08:11:06;14.40;;;10.93;;
54125;SDS011;40360;52.992;6.796;2023-07-22T08:13:33;13.27;;;10.30;;
54125;SDS011;40360;52.992;6.796;2023-07-22T08:16:03;13.85;;;10.20;;
54125;SDS011;40360;52.992;6.796;2023-07-22T08:18:30;15.40;;;10.13;;
54125;SDS011;40360;52.992;6.796;2023-07-22T08:20:56;14.73;;;9.98;;
54125;SDS011;40360;52.992;6.796;2023-07-22T08:23:22;12.18;;;9.15;;
54125;SDS011;40360;52.992;6.796;2023-07-22T08:25:48;11.88;;;8.18;;
54125;SDS011;40360;52.992;6.796;2023-07-22T08:28:14;17.00;;;9.95;;
54125;SDS011;40360;52.992;6.796;2023-07-22T08:30:40;13.98;;;10.45;;
54125;SDS011;40360;52.992;6.796;2023-07-22T08:33:07;13.43;;;9.63;;
54125;SDS011;40360;52.992;6.796;2023-07-22T08:35:39;13.73;;;11.30;;
54125;SDS011;40360;52.992;6.796;2023-07-22T08:38:05;15.05;;;10.52;;
54125;SDS011;40360;52.992;6.796;2023-07-22T08:43:04;15.25;;;11.52;;
54125;SDS011;40360;52.992;6.796;2023-07-22T08:45:32;13.88;;;10.27;;
54125;SDS011;40360;52.992;6.796;2023-07-22T08:48:08;13.88;;;9.75;;
54125;SDS011;40360;52.992;6.796;2023-07-22T08:53:16;11.63;;;8.88;;
54125;SDS011;40360;52.992;6.796;2023-07-22T08:55:44;10.85;;;8.90;;
54125;SDS011;40360;52.992;6.796;2023-07-22T08:58:10;15.23;;;11.20;;
54125;SDS011;40360;52.992;6.796;2023-07-22T09:00:37;13.45;;;9.77;;
54125;SDS011;40360;52.992;6.796;2023-07-22T09:03:03;14.93;;;10.27;;
54125;SDS011;40360;52.992;6.796;2023-07-22T09:05:31;13.18;;;9.48;;
54125;SDS011;40360;52.992;6.796;2023-07-22T09:07:58;12.23;;;9.15;;
54125;SDS011;40360;52.992;6.796;2023-07-22T09:10:26;12.45;;;10.02;;
54125;SDS011;40360;52.992;6.796;2023-07-22T09:12:53;15.95;;;10.80;;
54125;SDS011;40360;52.992;6.796;2023-07-22T09:15:18;11.25;;;8.75;;
54125;SDS011;40360;52.992;6.796;2023-07-22T09:17:45;15.05;;;10.43;;
54125;SDS011;40360;52.992;6.796;2023-07-22T09:20:11;16.95;;;10.43;;
54125;SDS011;40360;52.992;6.796;2023-07-22T09:22:48;15.18;;;10.05;;
54125;SDS011;40360;52.992;6.796;2023-07-22T09:25:15;14.90;;;10.02;;
54125;SDS011;40360;52.992;6.796;2023-07-22T09:27:45;11.55;;;9.13;;
54125;SDS011;40360;52.992;6.796;2023-07-22T09:30:24;12.15;;;9.10;;
54125;SDS011;40360;52.992;6.796;2023-07-22T09:32:52;13.75;;;9.52;;
54125;SDS011;40360;52.992;6.796;2023-07-22T09:35:19;14.13;;;9.93;;
54125;SDS011;40360;52.992;6.796;2023-07-22T09:37:45;13.25;;;9.98;;
54125;SDS011;40360;52.992;6.796;2023-07-22T09:40:18;13.25;;;10.05;;
54125;SDS011;40360;52.992;6.796;2023-07-22T09:42:52;15.35;;;10.30;;
54125;SDS011;40360;52.992;6.796;2023-07-22T09:45:19;13.00;;;9.95;;
54125;SDS011;40360;52.992;6.796;2023-07-22T09:47:48;11.80;;;9.32;;
54125;SDS011;40360;52.992;6.796;2023-07-22T09:50:20;11.95;;;8.05;;
54125;SDS011;40360;52.992;6.796;2023-07-22T09:52:56;9.35;;;7.13;;
54125;SDS011;40360;52.992;6.796;2023-07-22T09:55:30;10.68;;;6.90;;
54125;SDS011;40360;52.992;6.796;2023-07-22T10:00:34;7.18;;;5.85;;
54125;SDS011;40360;52.992;6.796;2023-07-22T10:03:01;6.32;;;4.93;;
54125;SDS011;40360;52.992;6.796;2023-07-22T10:05:30;8.32;;;6.25;;
54125;SDS011;40360;52.992;6.796;2023-07-22T10:07:59;9.82;;;6.32;;
54125;SDS011;40360;52.992;6.796;2023-07-22T10:10:31;9.10;;;6.15;;
54125;SDS011;40360;52.992;6.796;2023-07-22T10:13:02;8.90;;;6.28;;
54125;SDS011;40360;52.992;6.796;2023-07-22T10:15:29;5.70;;;4.20;;
54125;SDS011;40360;52.992;6.796;2023-07-22T10:17:56;7.80;;;4.55;;
54125;SDS011;40360;52.992;6.796;2023-07-22T10:20:22;4.53;;;3.83;;
54125;SDS011;40360;52.992;6.796;2023-07-22T10:22:49;5.38;;;3.92;;
54125;SDS011;40360;52.992;6.796;2023-07-22T10:25:17;6.43;;;4.40;;
54125;SDS011;40360;52.992;6.796;2023-07-22T10:27:44;5.20;;;3.50;;
54125;SDS011;40360;52.992;6.796;2023-07-22T10:30:10;5.57;;;3.85;;
54125;SDS011;40360;52.992;6.796;2023-07-22T10:32:47;6.38;;;4.35;;
54125;SDS011;40360;52.992;6.796;2023-07-22T10:35:21;4.68;;;3.78;;
54125;SDS011;40360;52.992;6.796;2023-07-22T10:38:17;6.40;;;3.40;;
54125;SDS011;40360;52.992;6.796;2023-07-22T10:40:52;7.55;;;4.20;;
54125;SDS011;40360;52.992;6.796;2023-07-22T10:43:26;6.25;;;3.75;;
54125;SDS011;40360;52.992;6.796;2023-07-22T10:45:58;5.30;;;3.67;;
54125;SDS011;40360;52.992;6.796;2023-07-22T10:48:28;4.97;;;3.78;;
54125;SDS011;40360;52.992;6.796;2023-07-22T10:53:31;6.85;;;4.20;;
54125;SDS011;40360;52.992;6.796;2023-07-22T10:56:07;6.75;;;4.05;;
54125;SDS011;40360;52.992;6.796;2023-07-22T11:01:23;5.38;;;3.60;;
54125;SDS011;40360;52.992;6.796;2023-07-22T11:17:12;6.45;;;5.07;;
54125;SDS011;40360;52.992;6.796;2023-07-22T11:19:38;7.30;;;5.80;;
54125;SDS011;40360;52.992;6.796;2023-07-22T11:22:04;7.43;;;5.90;;
54125;SDS011;40360;52.992;6.796;2023-07-22T11:24:31;8.68;;;6.32;;
54125;SDS011;40360;52.992;6.796;2023-07-22T11:27:06;10.45;;;5.95;;
54125;SDS011;40360;52.992;6.796;2023-07-22T11:29:36;11.95;;;6.47;;
54125;SDS011;40360;52.992;6.796;2023-07-22T11:32:02;10.43;;;7.50;;
54125;SDS011;40360;52.992;6.796;2023-07-22T11:34:28;9.55;;;8.02;;
54125;SDS011;40360;52.992;6.796;2023-07-22T11:36:54;12.75;;;8.75;;
54125;SDS011;40360;52.992;6.796;2023-07-22T11:39:21;10.68;;;9.52;;
54125;SDS011;40360;52.992;6.796;2023-07-22T11:41:49;13.23;;;9.43;;
54125;SDS011;40360;52.992;6.796;2023-07-22T11:44:16;11.55;;;8.70;;
54125;SDS011;40360;52.992;6.796;2023-07-22T11:49:30;11.18;;;8.15;;
54125;SDS011;40360;52.992;6.796;2023-07-22T11:52:09;11.85;;;8.82;;
54125;SDS011;40360;52.992;6.796;2023-07-22T11:54:40;15.13;;;9.70;;
54125;SDS011;40360;52.992;6.796;2023-07-22T11:57:10;11.48;;;9.93;;
54125;SDS011;40360;52.992;6.796;2023-07-22T11:59:53;15.15;;;10.90;;
54125;SDS011;40360;52.992;6.796;2023-07-22T12:02:24;11.80;;;9.48;;
54125;SDS011;40360;52.992;6.796;2023-07-22T12:04:59;13.80;;;10.77;;
54125;SDS011;40360;52.992;6.796;2023-07-22T12:07:33;12.32;;;10.23;;
54125;SDS011;40360;52.992;6.796;2023-07-22T12:10:03;10.95;;;9.57;;
54125;SDS011;40360;52.992;6.796;2023-07-22T12:12:31;12.65;;;10.98;;
54125;SDS011;40360;52.992;6.796;2023-07-22T12:15:16;15.43;;;9.57;;
54125;SDS011;40360;52.992;6.796;2023-07-22T12:17:44;11.68;;;9.07;;
54125;SDS011;40360;52.992;6.796;2023-07-22T12:20:23;11.35;;;7.97;;
54125;SDS011;40360;52.992;6.796;2023-07-22T12:22:51;8.68;;;7.28;;
54125;SDS011;40360;52.992;6.796;2023-07-22T12:25:16;10.05;;;7.25;;
54125;SDS011;40360;52.992;6.796;2023-07-22T12:27:43;9.73;;;7.00;;
54125;SDS011;40360;52.992;6.796;2023-07-22T12:30:09;7.82;;;6.10;;
54125;SDS011;40360;52.992;6.796;2023-07-22T12:32:35;7.22;;;6.13;;
54125;SDS011;40360;52.992;6.796;2023-07-22T12:35:01;7.82;;;6.28;;
54125;SDS011;40360;52.992;6.796;2023-07-22T12:37:28;7.47;;;6.35;;
54125;SDS011;40360;52.992;6.796;2023-07-22T12:39:54;7.72;;;6.55;;
54125;SDS011;40360;52.992;6.796;2023-07-22T12:42:19;10.48;;;7.40;;
54125;SDS011;40360;52.992;6.796;2023-07-22T12:44:45;7.40;;;6.68;;
54125;SDS011;40360;52.992;6.796;2023-07-22T12:47:11;8.10;;;7.30;;
54125;SDS011;40360;52.992;6.796;2023-07-22T12:49:37;9.55;;;7.88;;
54125;SDS011;40360;52.992;6.796;2023-07-22T12:52:02;7.93;;;7.03;;
54125;SDS011;40360;52.992;6.796;2023-07-22T12:54:32;9.48;;;8.55;;
54125;SDS011;40360;52.992;6.796;2023-07-22T12:56:58;10.38;;;9.18;;
54125;SDS011;40360;52.992;6.796;2023-07-22T12:59:24;10.13;;;9.10;;
54125;SDS011;40360;52.992;6.796;2023-07-22T13:01:49;12.55;;;10.90;;
54125;SDS011;40360;52.992;6.796;2023-07-22T13:04:15;14.38;;;9.40;;
54125;SDS011;40360;52.992;6.796;2023-07-22T13:06:40;16.50;;;10.38;;
54125;SDS011;40360;52.992;6.796;2023-07-22T13:09:06;12.77;;;10.40;;
54125;SDS011;40360;52.992;6.796;2023-07-22T13:11:31;15.27;;;10.70;;
54125;SDS011;40360;52.992;6.796;2023-07-22T13:13:57;12.02;;;10.73;;
54125;SDS011;40360;52.992;6.796;2023-07-22T13:16:23;16.33;;;13.05;;
54125;SDS011;40360;52.992;6.796;2023-07-22T13:18:49;14.05;;;11.70;;
54125;SDS011;40360;52.992;6.796;2023-07-22T13:21:14;15.02;;;13.15;;
54125;SDS011;40360;52.992;6.796;2023-07-22T13:23:40;15.63;;;13.82;;
54125;SDS011;40360;52.992;6.796;2023-07-22T13:26:05;15.02;;;12.80;;
54125;SDS011;40360;52.992;6.796;2023-07-22T13:28:31;12.55;;;11.25;;
54125;SDS011;40360;52.992;6.796;2023-07-22T13:30:57;14.88;;;11.95;;
54125;SDS011;40360;52.992;6.796;2023-07-22T13:33:22;10.73;;;9.75;;
54125;SDS011;40360;52.992;6.796;2023-07-22T13:35:48;13.85;;;10.38;;
54125;SDS011;40360;52.992;6.796;2023-07-22T13:38:15;11.13;;;9.85;;
54125;SDS011;40360;52.992;6.796;2023-07-22T13:40:41;12.35;;;10.80;;
54125;SDS011;40360;52.992;6.796;2023-07-22T13:43:06;13.32;;;9.95;;
54125;SDS011;40360;52.992;6.796;2023-07-22T13:45:32;11.23;;;10.05;;
54125;SDS011;40360;52.992;6.796;2023-07-22T13:47:58;11.68;;;10.40;;
54125;SDS011;40360;52.992;6.796;2023-07-22T13:50:23;10.80;;;9.77;;
54125;SDS011;40360;52.992;6.796;2023-07-22T13:52:49;9.68;;;8.63;;
54125;SDS011;40360;52.992;6.796;2023-07-22T13:55:15;10.85;;;8.95;;
54125;SDS011;40360;52.992;6.796;2023-07-22T13:57:41;10.95;;;8.40;;
54125;SDS011;40360;52.992;6.796;2023-07-22T14:00:06;8.88;;;6.50;;
54125;SDS011;40360;52.992;6.796;2023-07-22T14:02:33;7.93;;;7.03;;
54125;SDS011;40360;52.992;6.796;2023-07-22T14:04:59;10.40;;;7.50;;
54125;SDS011;40360;52.992;6.796;2023-07-22T14:07:25;8.07;;;7.13;;
54125;SDS011;40360;52.992;6.796;2023-07-22T14:09:51;6.43;;;5.32;;
54125;SDS011;40360;52.992;6.796;2023-07-22T14:12:18;7.80;;;6.57;;
54125;SDS011;40360;52.992;6.796;2023-07-22T14:14:43;6.85;;;5.70;;
54125;SDS011;40360;52.992;6.796;2023-07-22T14:17:09;8.27;;;5.55;;
54125;SDS011;40360;52.992;6.796;2023-07-22T14:19:34;7.78;;;5.90;;
54125;SDS011;40360;52.992;6.796;2023-07-22T14:22:00;6.22;;;5.40;;
54125;SDS011;40360;52.992;6.796;2023-07-22T14:24:26;7.45;;;6.10;;
54125;SDS011;40360;52.992;6.796;2023-07-22T14:26:51;8.80;;;6.90;;
54125;SDS011;40360;52.992;6.796;2023-07-22T14:29:17;9.15;;;6.72;;
54125;SDS011;40360;52.992;6.796;2023-07-22T14:31:43;9.40;;;7.50;;
54125;SDS011;40360;52.992;6.796;2023-07-22T14:34:08;11.57;;;8.20;;
54125;SDS011;40360;52.992;6.796;2023-07-22T14:36:34;9.30;;;7.75;;
54125;SDS011;40360;52.992;6.796;2023-07-22T14:39:00;7.75;;;6.95;;
54125;SDS011;40360;52.992;6.796;2023-07-22T14:41:25;11.20;;;7.32;;
54125;SDS011;40360;52.992;6.796;2023-07-22T14:43:51;8.00;;;7.00;;
54125;SDS011;40360;52.992;6.796;2023-07-22T14:46:16;9.82;;;8.13;;
54125;SDS011;40360;52.992;6.796;2023-07-22T14:48:42;9.85;;;7.05;;
54125;SDS011;40360;52.992;6.796;2023-07-22T14:51:08;11.05;;;7.45;;
54125;SDS011;40360;52.992;6.796;2023-07-22T14:53:33;9.23;;;7.88;;
54125;SDS011;40360;52.992;6.796;2023-07-22T14:55:59;9.00;;;7.32;;
54125;SDS011;40360;52.992;6.796;2023-07-22T14:58:25;11.98;;;8.07;;
54125;SDS011;40360;52.992;6.796;2023-07-22T15:00:50;8.48;;;7.60;;
54125;SDS011;40360;52.992;6.796;2023-07-22T15:03:16;15.82;;;8.40;;
54125;SDS011;40360;52.992;6.796;2023-07-22T15:05:42;9.75;;;8.18;;
54125;SDS011;40360;52.992;6.796;2023-07-22T15:08:07;10.13;;;8.45;;
54125;SDS011;40360;52.992;6.796;2023-07-22T15:10:33;15.55;;;7.70;;
54125;SDS011;40360;52.992;6.796;2023-07-22T15:12:58;9.63;;;8.38;;
54125;SDS011;40360;52.992;6.796;2023-07-22T15:15:24;10.20;;;8.90;;